sensor_id;sensor_type;location;lat;lon;timestamp;pressure;altitude;pressure_sealevel;temperature;humidity
72975;BME280;61166;54.228;37.632;2022-08-05T00:00:29;99764.03;;;19.35;nan
72975;BME280;61166;54.228;37.632;2022-08-05T00:02:55;99757.38;;;19.38;nan
72975;BME280;61166;54.228;37.632;2022-08-05T00:05:20;99766.94;;;19.34;nan
72975;BME280;61166;54.228;37.632;2022-08-05T00:07:46;99762.41;;;19.34;nan
72975;BME280;61166;54.228;37.632;2022-08-05T00:10:11;99760.47;;;19.25;nan
72975;BME280;61166;54.228;37.632;2022-08-05T00:12:37;99768.56;;;19.35;nan
72975;BME280;61166;54.228;37.632;2022-08-05T00:15:03;99771.47;;;19.33;nan
72975;BME280;61166;54.228;37.632;2022-08-05T00:17:29;99763.72;;;19.32;nan
72975;BME280;61166;54.228;37.632;2022-08-05T00:19:54;99760.03;;;19.38;nan
72975;BME280;61166;54.228;37.632;2022-08-05T00:22:20;99760.50;;;19.30;nan
72975;BME280;61166;54.228;37.632;2022-08-05T00:24:45;99765.63;;;19.36;nan
72975;BME280;61166;54.228;37.632;2022-08-05T00:27:11;99765.63;;;19.36;nan
72975;BME280;61166;54.228;37.632;2022-08-05T00:29:36;99761.09;;;19.37;nan
72975;BME280;61166;54.228;37.632;2022-08-05T00:32:01;99756.88;;;19.41;nan
72975;BME280;61166;54.228;37.632;2022-08-05T00:34:28;99762.72;;;19.38;nan
72975;BME280;61166;54.228;37.632;2022-08-05T00:36:54;99762.41;;;19.34;nan
72975;BME280;61166;54.228;37.632;2022-08-05T00:39:19;99756.06;;;19.40;nan
72975;BME280;61166;54.228;37.632;2022-08-05T00:41:46;99756.56;;;19.37;nan
72975;BME280;61166;54.228;37.632;2022-08-05T00:44:12;99759.19;;;19.32;nan
72975;BME280;61166;54.228;37.632;2022-08-05T00:46:37;99753.56;;;19.29;nan
72975;BME280;61166;54.228;37.632;2022-08-05T00:49:03;99756.50;;;19.27;nan
72975;BME280;61166;54.228;37.632;2022-08-05T00:51:28;99759.78;;;19.39;nan
72975;BME280;61166;54.228;37.632;2022-08-05T00:53:54;99758.47;;;19.42;nan
72975;BME280;61166;54.228;37.632;2022-08-05T00:56:19;99757.69;;;19.41;nan
72975;BME280;61166;54.228;37.632;2022-08-05T00:58:45;99760.31;;;19.36;nan
72975;BME280;61166;54.228;37.632;2022-08-05T01:01:11;99752.50;;;19.30;nan
72975;BME280;61166;54.228;37.632;2022-08-05T01:03:38;99752.75;;;19.28;nan
72975;BME280;61166;54.228;37.632;2022-08-05T01:06:04;99753.06;;;19.32;nan
72975;BME280;61166;54.228;37.632;2022-08-05T01:08:30;99744.81;;;19.33;nan
72975;BME280;61166;54.228;37.632;2022-08-05T01:10:59;99759.50;;;19.36;nan
72975;BME280;61166;54.228;37.632;2022-08-05T01:16:00;99755.78;;;19.37;nan
72975;BME280;61166;54.228;37.632;2022-08-05T01:18:33;99761.31;;;19.30;nan
72975;BME280;61166;54.228;37.632;2022-08-05T01:21:15;99767.16;;;19.27;nan
72975;BME280;61166;54.228;37.632;2022-08-05T01:28:56;99774.41;;;19.32;nan
72975;BME280;61166;54.228;37.632;2022-08-05T01:31:26;99772.31;;;19.39;nan
72975;BME280;61166;54.228;37.632;2022-08-05T01:36:25;99774.53;;;19.47;nan
72975;BME280;61166;54.228;37.632;2022-08-05T01:38:54;99766.00;;;19.50;nan
72975;BME280;61166;54.228;37.632;2022-08-05T01:41:21;99766.88;;;19.56;nan
72975;BME280;61166;54.228;37.632;2022-08-05T01:43:49;99763.19;;;19.62;nan
72975;BME280;61166;54.228;37.632;2022-08-05T01:46:17;99755.19;;;19.67;nan
72975;BME280;61166;54.228;37.632;2022-08-05T01:48:45;99773.19;;;19.82;nan
72975;BME280;61166;54.228;37.632;2022-08-05T01:51:11;99767.41;;;19.95;nan
72975;BME280;61166;54.228;37.632;2022-08-05T01:53:39;99773.53;;;19.95;nan
72975;BME280;61166;54.228;37.632;2022-08-05T01:56:06;99774.91;;;20.03;nan
72975;BME280;61166;54.228;37.632;2022-08-05T01:58:34;99776.81;;;20.07;nan
72975;BME280;61166;54.228;37.632;2022-08-05T02:01:01;99774.72;;;20.15;nan
72975;BME280;61166;54.228;37.632;2022-08-05T02:03:36;99770.47;;;20.24;nan
72975;BME280;61166;54.228;37.632;2022-08-05T02:06:03;99780.09;;;20.25;nan
72975;BME280;61166;54.228;37.632;2022-08-05T02:08:33;99783.50;;;20.10;nan
72975;BME280;61166;54.228;37.632;2022-08-05T02:11:04;99782.69;;;20.04;nan
72975;BME280;61166;54.228;37.632;2022-08-05T02:13:41;99781.78;;;19.89;nan
72975;BME280;61166;54.228;37.632;2022-08-05T02:16:18;99775.59;;;19.83;nan
72975;BME280;61166;54.228;37.632;2022-08-05T02:18:55;99771.59;;;19.86;nan
72975;BME280;61166;54.228;37.632;2022-08-05T02:21:25;99776.75;;;19.97;nan
72975;BME280;61166;54.228;37.632;2022-08-05T02:23:55;99783.63;;;19.88;nan
72975;BME280;61166;54.228;37.632;2022-08-05T02:26:26;99776.66;;;19.82;nan
72975;BME280;61166;54.228;37.632;2022-08-05T02:28:58;99788.34;;;19.76;nan
72975;BME280;61166;54.228;37.632;2022-08-05T02:31:29;99795.22;;;19.62;nan
72975;BME280;61166;54.228;37.632;2022-08-05T02:34:00;99793.91;;;19.69;nan
72975;BME280;61166;54.228;37.632;2022-08-05T02:36:27;99802.19;;;19.68;nan
72975;BME280;61166;54.228;37.632;2022-08-05T02:38:55;99803.59;;;19.81;nan
72975;BME280;61166;54.228;37.632;2022-08-05T02:41:22;99799.88;;;19.82;nan
72975;BME280;61166;54.228;37.632;2022-08-05T02:43:50;99800.69;;;19.82;nan
72975;BME280;61166;54.228;37.632;2022-08-05T02:46:17;99800.34;;;19.73;nan
72975;BME280;61166;54.228;37.632;2022-08-05T02:48:45;99806.44;;;19.69;nan
72975;BME280;61166;54.228;37.632;2022-08-05T02:51:12;99804.84;;;19.68;nan
72975;BME280;61166;54.228;37.632;2022-08-05T02:53:40;99813.91;;;19.67;nan
72975;BME280;61166;54.228;37.632;2022-08-05T02:56:08;99808.56;;;19.67;nan
72975;BME280;61166;54.228;37.632;2022-08-05T02:58:36;99813.09;;;19.66;nan
72975;BME280;61166;54.228;37.632;2022-08-05T03:01:03;99818.44;;;19.61;nan
72975;BME280;61166;54.228;37.632;2022-08-05T03:03:30;99830.63;;;19.52;nan
72975;BME280;61166;54.228;37.632;2022-08-05T03:05:57;99832.97;;;19.22;nan
72975;BME280;61166;54.228;37.632;2022-08-05T03:08:23;99828.66;;;18.89;nan
72975;BME280;61166;54.228;37.632;2022-08-05T03:10:49;99829.72;;;18.49;nan
72975;BME280;61166;54.228;37.632;2022-08-05T03:13:15;99839.50;;;18.22;nan
72975;BME280;61166;54.228;37.632;2022-08-05T03:15:43;99837.88;;;18.21;nan
72975;BME280;61166;54.228;37.632;2022-08-05T03:18:08;99840.47;;;18.15;nan
72975;BME280;61166;54.228;37.632;2022-08-05T03:20:34;99836.84;;;18.22;nan
72975;BME280;61166;54.228;37.632;2022-08-05T03:23:00;99840.88;;;18.24;nan
72975;BME280;61166;54.228;37.632;2022-08-05T03:25:26;99843.34;;;18.31;nan
72975;BME280;61166;54.228;37.632;2022-08-05T03:27:53;99844.47;;;18.35;nan
72975;BME280;61166;54.228;37.632;2022-08-05T03:30:19;99846.34;;;18.34;nan
72975;BME280;61166;54.228;37.632;2022-08-05T03:32:45;99847.69;;;18.37;nan
72975;BME280;61166;54.228;37.632;2022-08-05T03:35:12;99848.03;;;18.40;nan
72975;BME280;61166;54.228;37.632;2022-08-05T03:37:37;99850.44;;;18.42;nan
72975;BME280;61166;54.228;37.632;2022-08-05T03:40:03;99849.94;;;18.45;nan
72975;BME280;61166;54.228;37.632;2022-08-05T03:42:32;99850.53;;;18.52;nan
72975;BME280;61166;54.228;37.632;2022-08-05T03:44:59;99856.69;;;18.53;nan
72975;BME280;61166;54.228;37.632;2022-08-05T03:47:24;99853.28;;;18.57;nan
72975;BME280;61166;54.228;37.632;2022-08-05T03:49:49;99852.31;;;18.63;nan
72975;BME280;61166;54.228;37.632;2022-08-05T03:52:22;99863.09;;;18.73;nan
72975;BME280;61166;54.228;37.632;2022-08-05T03:54:54;99856.78;;;18.79;nan
72975;BME280;61166;54.228;37.632;2022-08-05T03:57:24;99861.31;;;18.79;nan
72975;BME280;61166;54.228;37.632;2022-08-05T03:59:59;99861.63;;;18.83;nan
72975;BME280;61166;54.228;37.632;2022-08-05T04:02:28;99858.84;;;18.94;nan
72975;BME280;61166;54.228;37.632;2022-08-05T04:04:56;99856.53;;;19.03;nan
72975;BME280;61166;54.228;37.632;2022-08-05T04:07:22;99861.38;;;19.11;nan
72975;BME280;61166;54.228;37.632;2022-08-05T04:09:48;99862.56;;;19.20;nan
72975;BME280;61166;54.228;37.632;2022-08-05T04:12:14;99863.16;;;19.27;nan
72975;BME280;61166;54.228;37.632;2022-08-05T04:14:40;99856.31;;;19.36;nan
72975;BME280;61166;54.228;37.632;2022-08-05T04:17:07;99871.88;;;19.44;nan
72975;BME280;61166;54.228;37.632;2022-08-05T04:19:41;99864.50;;;19.52;nan
72975;BME280;61166;54.228;37.632;2022-08-05T04:22:06;99863.78;;;19.61;nan
72975;BME280;61166;54.228;37.632;2022-08-05T04:24:32;99861.19;;;19.71;nan
72975;BME280;61166;54.228;37.632;2022-08-05T04:26:57;99858.31;;;19.78;nan
72975;BME280;61166;54.228;37.632;2022-08-05T04:29:23;99856.69;;;19.77;nan
72975;BME280;61166;54.228;37.632;2022-08-05T04:31:48;99857.75;;;19.76;nan
72975;BME280;61166;54.228;37.632;2022-08-05T04:34:13;99859.31;;;19.72;nan
72975;BME280;61166;54.228;37.632;2022-08-05T04:36:39;99855.59;;;19.73;nan
72975;BME280;61166;54.228;37.632;2022-08-05T04:39:04;99861.72;;;19.73;nan
72975;BME280;61166;54.228;37.632;2022-08-05T04:41:29;99868.38;;;19.71;nan
72975;BME280;61166;54.228;37.632;2022-08-05T04:43:56;99864.66;;;19.72;nan
72975;BME280;61166;54.228;37.632;2022-08-05T04:46:21;99858.47;;;19.66;nan
72975;BME280;61166;54.228;37.632;2022-08-05T04:48:46;99871.56;;;19.68;nan
72975;BME280;61166;54.228;37.632;2022-08-05T04:51:12;99871.00;;;19.66;nan
72975;BME280;61166;54.228;37.632;2022-08-05T04:53:38;99875.63;;;19.75;nan
72975;BME280;61166;54.228;37.632;2022-08-05T04:56:07;99873.69;;;19.66;nan
72975;BME280;61166;54.228;37.632;2022-08-05T04:58:32;99871.06;;;19.71;nan
72975;BME280;61166;54.228;37.632;2022-08-05T05:00:58;99875.88;;;19.74;nan
72975;BME280;61166;54.228;37.632;2022-08-05T05:03:23;99882.06;;;19.79;nan
72975;BME280;61166;54.228;37.632;2022-08-05T05:05:49;99877.84;;;19.84;nan
72975;BME280;61166;54.228;37.632;2022-08-05T05:08:14;99875.72;;;19.86;nan
72975;BME280;61166;54.228;37.632;2022-08-05T05:10:44;99878.16;;;19.92;nan
72975;BME280;61166;54.228;37.632;2022-08-05T05:13:11;99878.22;;;19.97;nan
72975;BME280;61166;54.228;37.632;2022-08-05T05:15:37;99889.47;;;20.04;nan
72975;BME280;61166;54.228;37.632;2022-08-05T05:18:03;99885.25;;;20.08;nan
72975;BME280;61166;54.228;37.632;2022-08-05T05:20:29;99883.41;;;20.14;nan
72975;BME280;61166;54.228;37.632;2022-08-05T05:22:56;99884.50;;;20.18;nan
72975;BME280;61166;54.228;37.632;2022-08-05T05:25:22;99886.91;;;20.20;nan
72975;BME280;61166;54.228;37.632;2022-08-05T05:27:47;99881.59;;;20.20;nan
72975;BME280;61166;54.228;37.632;2022-08-05T05:30:14;99881.06;;;20.28;nan
72975;BME280;61166;54.228;37.632;2022-08-05T05:32:39;99882.50;;;20.40;nan
72975;BME280;61166;54.228;37.632;2022-08-05T05:35:05;99884.97;;;20.47;nan
72975;BME280;61166;54.228;37.632;2022-08-05T05:37:30;99882.88;;;20.54;nan
72975;BME280;61166;54.228;37.632;2022-08-05T05:39:56;99885.56;;;20.59;nan
72975;BME280;61166;54.228;37.632;2022-08-05T05:42:21;99884.56;;;20.70;nan
72975;BME280;61166;54.228;37.632;2022-08-05T05:44:47;99885.63;;;20.74;nan
72975;BME280;61166;54.228;37.632;2022-08-05T05:47:12;99891.25;;;20.83;nan
72975;BME280;61166;54.228;37.632;2022-08-05T05:49:37;99889.97;;;20.96;nan
72975;BME280;61166;54.228;37.632;2022-08-05T05:52:04;99887.91;;;21.13;nan
72975;BME280;61166;54.228;37.632;2022-08-05T05:54:29;99885.84;;;21.30;nan
72975;BME280;61166;54.228;37.632;2022-08-05T05:56:55;99886.91;;;21.50;nan
72975;BME280;61166;54.228;37.632;2022-08-05T05:59:21;99896.59;;;21.71;nan
72975;BME280;61166;54.228;37.632;2022-08-05T06:01:46;99891.50;;;21.85;nan
72975;BME280;61166;54.228;37.632;2022-08-05T06:04:12;99901.41;;;22.04;nan
72975;BME280;61166;54.228;37.632;2022-08-05T06:06:42;99896.59;;;22.22;nan
72975;BME280;61166;54.228;37.632;2022-08-05T06:09:09;99901.91;;;22.42;nan
72975;BME280;61166;54.228;37.632;2022-08-05T06:11:34;99895.66;;;22.62;nan
72975;BME280;61166;54.228;37.632;2022-08-05T06:14:00;99893.22;;;22.86;nan
72975;BME280;61166;54.228;37.632;2022-08-05T06:16:25;99897.34;;;23.17;nan
72975;BME280;61166;54.228;37.632;2022-08-05T06:18:51;99903.34;;;23.48;nan
72975;BME280;61166;54.228;37.632;2022-08-05T06:21:17;99893.97;;;23.80;nan
72975;BME280;61166;54.228;37.632;2022-08-05T06:23:42;99891.56;;;24.12;nan
72975;BME280;61166;54.228;37.632;2022-08-05T06:26:08;99895.22;;;24.50;nan
72975;BME280;61166;54.228;37.632;2022-08-05T06:28:33;99891.53;;;24.89;nan
72975;BME280;61166;54.228;37.632;2022-08-05T06:30:59;99889.94;;;25.30;nan
72975;BME280;61166;54.228;37.632;2022-08-05T06:33:24;99889.91;;;25.68;nan
72975;BME280;61166;54.228;37.632;2022-08-05T06:35:50;99894.59;;;26.09;nan
72975;BME280;61166;54.228;37.632;2022-08-05T06:38:15;99889.56;;;26.89;nan
72975;BME280;61166;54.228;37.632;2022-08-05T06:40:41;99888.31;;;27.81;nan
72975;BME280;61166;54.228;37.632;2022-08-05T06:43:07;99885.53;;;30.68;nan
72975;BME280;61166;54.228;37.632;2022-08-05T06:45:32;99875.44;;;33.99;nan
72975;BME280;61166;54.228;37.632;2022-08-05T06:52:50;99865.69;;;39.22;nan
72975;BME280;61166;54.228;37.632;2022-08-05T06:55:16;99863.50;;;39.99;nan
72975;BME280;61166;54.228;37.632;2022-08-05T06:57:42;99865.81;;;40.82;nan
72975;BME280;61166;54.228;37.632;2022-08-05T07:00:07;99869.91;;;41.40;nan
72975;BME280;61166;54.228;37.632;2022-08-05T07:02:40;99877.03;;;41.34;nan
72975;BME280;61166;54.228;37.632;2022-08-05T07:05:06;99866.97;;;42.20;nan
72975;BME280;61166;54.228;37.632;2022-08-05T07:07:32;99867.34;;;42.67;nan
72975;BME280;61166;54.228;37.632;2022-08-05T07:09:57;99870.53;;;43.00;nan
72975;BME280;61166;54.228;37.632;2022-08-05T07:12:22;99864.00;;;42.83;nan
72975;BME280;61166;54.228;37.632;2022-08-05T07:15:07;99867.72;;;42.25;nan
72975;BME280;61166;54.228;37.632;2022-08-05T07:17:51;99862.28;;;42.59;nan
72975;BME280;61166;54.228;37.632;2022-08-05T07:20:16;99865.31;;;42.71;nan
72975;BME280;61166;54.228;37.632;2022-08-05T07:22:42;99859.38;;;42.32;nan
72975;BME280;61166;54.228;37.632;2022-08-05T07:25:07;99859.59;;;43.20;nan
72975;BME280;61166;54.228;37.632;2022-08-05T07:27:33;99859.44;;;42.25;nan
72975;BME280;61166;54.228;37.632;2022-08-05T07:29:58;99861.94;;;41.53;nan
72975;BME280;61166;54.228;37.632;2022-08-05T07:32:23;99854.72;;;41.73;nan
72975;BME280;61166;54.228;37.632;2022-08-05T07:34:49;99856.50;;;42.46;nan
72975;BME280;61166;54.228;37.632;2022-08-05T07:37:14;99846.97;;;43.45;nan
72975;BME280;61166;54.228;37.632;2022-08-05T07:39:39;99854.59;;;42.36;nan
72975;BME280;61166;54.228;37.632;2022-08-05T07:42:05;99848.13;;;42.12;nan
72975;BME280;61166;54.228;37.632;2022-08-05T07:44:30;99849.22;;;41.70;nan
72975;BME280;61166;54.228;37.632;2022-08-05T07:46:55;99858.00;;;41.50;nan
72975;BME280;61166;54.228;37.632;2022-08-05T07:49:21;99842.63;;;42.08;nan
72975;BME280;61166;54.228;37.632;2022-08-05T07:51:46;99838.88;;;41.81;nan
72975;BME280;61166;54.228;37.632;2022-08-05T07:54:12;99843.09;;;41.41;nan
72975;BME280;61166;54.228;37.632;2022-08-05T07:56:37;99840.94;;;41.70;nan
72975;BME280;61166;54.228;37.632;2022-08-05T07:59:03;99835.97;;;41.43;nan
72975;BME280;61166;54.228;37.632;2022-08-05T08:01:28;99838.59;;;40.84;nan
72975;BME280;61166;54.228;37.632;2022-08-05T08:03:53;99831.63;;;39.84;nan
72975;BME280;61166;54.228;37.632;2022-08-05T08:06:19;99821.38;;;40.20;nan
72975;BME280;61166;54.228;37.632;2022-08-05T08:08:44;99819.03;;;40.43;nan
72975;BME280;61166;54.228;37.632;2022-08-05T08:11:10;99829.69;;;41.39;nan
72975;BME280;61166;54.228;37.632;2022-08-05T08:13:35;99827.44;;;41.09;nan
72975;BME280;61166;54.228;37.632;2022-08-05T08:16:00;99812.16;;;41.64;nan
72975;BME280;61166;54.228;37.632;2022-08-05T08:18:26;99822.41;;;40.97;nan
72975;BME280;61166;54.228;37.632;2022-08-05T08:20:51;99816.66;;;40.20;nan
72975;BME280;61166;54.228;37.632;2022-08-05T08:23:17;99817.34;;;40.67;nan
72975;BME280;61166;54.228;37.632;2022-08-05T08:25:43;99817.34;;;40.74;nan
72975;BME280;61166;54.228;37.632;2022-08-05T08:28:09;99816.03;;;41.04;nan
72975;BME280;61166;54.228;37.632;2022-08-05T08:30:34;99816.63;;;40.49;nan
72975;BME280;61166;54.228;37.632;2022-08-05T08:33:09;99819.88;;;38.75;nan
72975;BME280;61166;54.228;37.632;2022-08-05T08:35:36;99823.25;;;39.23;nan
72975;BME280;61166;54.228;37.632;2022-08-05T08:38:02;99808.78;;;39.66;nan
72975;BME280;61166;54.228;37.632;2022-08-05T08:40:31;99796.22;;;40.00;nan
72975;BME280;61166;54.228;37.632;2022-08-05T08:42:57;99801.56;;;39.04;nan
72975;BME280;61166;54.228;37.632;2022-08-05T08:45:23;99805.06;;;38.97;nan
72975;BME280;61166;54.228;37.632;2022-08-05T08:47:50;99792.28;;;40.08;nan
72975;BME280;61166;54.228;37.632;2022-08-05T08:50:19;99804.00;;;40.51;nan
72975;BME280;61166;54.228;37.632;2022-08-05T08:52:49;99800.66;;;41.06;nan
72975;BME280;61166;54.228;37.632;2022-08-05T08:55:16;99803.97;;;40.69;nan
72975;BME280;61166;54.228;37.632;2022-08-05T08:57:42;99793.84;;;40.20;nan
72975;BME280;61166;54.228;37.632;2022-08-05T09:00:08;99793.84;;;39.70;nan
72975;BME280;61166;54.228;37.632;2022-08-05T09:02:34;99794.56;;;39.35;nan
72975;BME280;61166;54.228;37.632;2022-08-05T09:05:00;99793.84;;;39.70;nan
72975;BME280;61166;54.228;37.632;2022-08-05T09:07:25;99788.75;;;39.79;nan
72975;BME280;61166;54.228;37.632;2022-08-05T09:09:51;99792.19;;;39.26;nan
72975;BME280;61166;54.228;37.632;2022-08-05T09:12:16;99785.03;;;39.01;nan
72975;BME280;61166;54.228;37.632;2022-08-05T09:14:42;99796.09;;;39.15;nan
72975;BME280;61166;54.228;37.632;2022-08-05T09:17:08;99796.09;;;40.61;nan
72975;BME280;61166;54.228;37.632;2022-08-05T09:19:35;99789.91;;;39.96;nan
72975;BME280;61166;54.228;37.632;2022-08-05T09:22:01;99787.44;;;39.13;nan
72975;BME280;61166;54.228;37.632;2022-08-05T09:24:27;99796.66;;;38.58;nan
72975;BME280;61166;54.228;37.632;2022-08-05T09:26:55;99794.34;;;38.78;nan
72975;BME280;61166;54.228;37.632;2022-08-05T09:29:39;99788.19;;;39.03;nan
72975;BME280;61166;54.228;37.632;2022-08-05T09:32:10;99794.69;;;38.62;nan
72975;BME280;61166;54.228;37.632;2022-08-05T09:35:15;99785.75;;;38.18;nan
72975;BME280;61166;54.228;37.632;2022-08-05T09:37:51;99795.63;;;37.75;nan
72975;BME280;61166;54.228;37.632;2022-08-05T09:40:35;99790.66;;;36.80;nan
72975;BME280;61166;54.228;37.632;2022-08-05T09:43:04;99797.72;;;36.54;nan
72975;BME280;61166;54.228;37.632;2022-08-05T09:45:49;99777.56;;;37.74;nan
72975;BME280;61166;54.228;37.632;2022-08-05T09:50:48;99779.41;;;37.62;nan
72975;BME280;61166;54.228;37.632;2022-08-05T09:53:14;99783.41;;;36.94;nan
72975;BME280;61166;54.228;37.632;2022-08-05T09:55:39;99791.22;;;36.36;nan
72975;BME280;61166;54.228;37.632;2022-08-05T09:58:12;99776.50;;;36.21;nan
72975;BME280;61166;54.228;37.632;2022-08-05T10:00:39;99780.13;;;35.15;nan
72975;BME280;61166;54.228;37.632;2022-08-05T10:03:09;99777.19;;;33.99;nan
72975;BME280;61166;54.228;37.632;2022-08-05T10:05:35;99778.69;;;32.81;nan
72975;BME280;61166;54.228;37.632;2022-08-05T10:08:05;99772.94;;;31.73;nan
72975;BME280;61166;54.228;37.632;2022-08-05T10:10:35;99780.09;;;30.91;nan
72975;BME280;61166;54.228;37.632;2022-08-05T10:13:03;99786.19;;;30.37;nan
72975;BME280;61166;54.228;37.632;2022-08-05T10:15:34;99781.03;;;30.15;nan
72975;BME280;61166;54.228;37.632;2022-08-05T10:20:32;99787.63;;;29.50;nan
72975;BME280;61166;54.228;37.632;2022-08-05T10:22:59;99775.88;;;29.46;nan
72975;BME280;61166;54.228;37.632;2022-08-05T10:25:25;99773.81;;;29.43;nan
72975;BME280;61166;54.228;37.632;2022-08-05T10:27:50;99781.59;;;29.36;nan
72975;BME280;61166;54.228;37.632;2022-08-05T10:30:18;99777.78;;;29.19;nan
72975;BME280;61166;54.228;37.632;2022-08-05T10:32:44;99774.91;;;29.07;nan
72975;BME280;61166;54.228;37.632;2022-08-05T10:35:11;99776.19;;;29.01;nan
72975;BME280;61166;54.228;37.632;2022-08-05T10:40:03;99776.03;;;28.98;nan
72975;BME280;61166;54.228;37.632;2022-08-05T10:42:33;99767.91;;;28.98;nan
72975;BME280;61166;54.228;37.632;2022-08-05T10:45:05;99769.50;;;28.90;nan
72975;BME280;61166;54.228;37.632;2022-08-05T10:47:32;99775.25;;;28.97;nan
72975;BME280;61166;54.228;37.632;2022-08-05T10:52:46;99770.78;;;29.10;nan
72975;BME280;61166;54.228;37.632;2022-08-05T10:55:17;99775.56;;;29.04;nan
72975;BME280;61166;54.228;37.632;2022-08-05T10:57:43;99776.34;;;29.05;nan
72975;BME280;61166;54.228;37.632;2022-08-05T11:00:19;99780.19;;;28.86;nan
72975;BME280;61166;54.228;37.632;2022-08-05T11:03:16;99776.69;;;28.86;nan
72975;BME280;61166;54.228;37.632;2022-08-05T11:06:01;99788.47;;;28.99;nan
72975;BME280;61166;54.228;37.632;2022-08-05T11:08:27;99768.56;;;29.03;nan
72975;BME280;61166;54.228;37.632;2022-08-05T11:10:53;99773.66;;;28.96;nan
72975;BME280;61166;54.228;37.632;2022-08-05T11:13:48;99767.25;;;28.75;nan
72975;BME280;61166;54.228;37.632;2022-08-05T11:16:21;99766.47;;;28.66;nan
72975;BME280;61166;54.228;37.632;2022-08-05T11:18:47;99770.13;;;28.70;nan
72975;BME280;61166;54.228;37.632;2022-08-05T11:21:36;99764.91;;;28.82;nan
72975;BME280;61166;54.228;37.632;2022-08-05T11:24:07;99763.63;;;28.88;nan
72975;BME280;61166;54.228;37.632;2022-08-05T11:26:35;99774.13;;;28.89;nan
72975;BME280;61166;54.228;37.632;2022-08-05T11:29:03;99770.94;;;28.79;nan
72975;BME280;61166;54.228;37.632;2022-08-05T11:31:30;99755.97;;;28.73;nan
72975;BME280;61166;54.228;37.632;2022-08-05T11:34:04;99762.94;;;28.65;nan
72975;BME280;61166;54.228;37.632;2022-08-05T11:36:50;99759.91;;;28.49;nan
72975;BME280;61166;54.228;37.632;2022-08-05T11:39:49;99753.69;;;28.49;nan
72975;BME280;61166;54.228;37.632;2022-08-05T11:42:15;99752.59;;;28.50;nan
72975;BME280;61166;54.228;37.632;2022-08-05T11:44:46;99746.22;;;28.54;nan
72975;BME280;61166;54.228;37.632;2022-08-05T11:47:11;99741.13;;;28.62;nan
72975;BME280;61166;54.228;37.632;2022-08-05T11:49:37;99735.88;;;28.56;nan
72975;BME280;61166;54.228;37.632;2022-08-05T11:52:04;99739.53;;;28.60;nan
72975;BME280;61166;54.228;37.632;2022-08-05T11:54:31;99747.34;;;28.62;nan
72975;BME280;61166;54.228;37.632;2022-08-05T11:57:03;99751.03;;;28.75;nan
72975;BME280;61166;54.228;37.632;2022-08-05T11:59:30;99749.75;;;28.64;nan
72975;BME280;61166;54.228;37.632;2022-08-05T12:02:05;99739.84;;;28.50;nan
72975;BME280;61166;54.228;37.632;2022-08-05T12:04:45;99737.78;;;28.65;nan
72975;BME280;61166;54.228;37.632;2022-08-05T12:07:13;99744.81;;;28.66;nan
72975;BME280;61166;54.228;37.632;2022-08-05T12:09:45;99737.97;;;28.77;nan
72975;BME280;61166;54.228;37.632;2022-08-05T12:12:11;99735.56;;;28.75;nan
72975;BME280;61166;54.228;37.632;2022-08-05T12:14:39;99742.63;;;28.85;nan
72975;BME280;61166;54.228;37.632;2022-08-05T12:17:12;99746.25;;;28.89;nan
72975;BME280;61166;54.228;37.632;2022-08-05T12:19:41;99748.16;;;28.80;nan
72975;BME280;61166;54.228;37.632;2022-08-05T12:22:07;99739.59;;;28.86;nan
72975;BME280;61166;54.228;37.632;2022-08-05T12:24:33;99741.78;;;28.76;nan
72975;BME280;61166;54.228;37.632;2022-08-05T12:26:59;99730.47;;;28.74;nan
72975;BME280;61166;54.228;37.632;2022-08-05T12:29:26;99738.94;;;28.89;nan
72975;BME280;61166;54.228;37.632;2022-08-05T12:31:54;99737.84;;;28.82;nan
72975;BME280;61166;54.228;37.632;2022-08-05T12:34:22;99732.44;;;28.82;nan
72975;BME280;61166;54.228;37.632;2022-08-05T12:36:51;99734.47;;;28.68;nan
72975;BME280;61166;54.228;37.632;2022-08-05T12:39:17;99742.41;;;28.73;nan
72975;BME280;61166;54.228;37.632;2022-08-05T12:41:44;99732.72;;;28.80;nan
72975;BME280;61166;54.228;37.632;2022-08-05T12:44:14;99728.88;;;28.90;nan
72975;BME280;61166;54.228;37.632;2022-08-05T12:46:41;99725.91;;;28.83;nan
72975;BME280;61166;54.228;37.632;2022-08-05T12:49:11;99717.41;;;28.76;nan
72975;BME280;61166;54.228;37.632;2022-08-05T12:51:57;99717.41;;;28.76;nan
72975;BME280;61166;54.228;37.632;2022-08-05T12:54:25;99715.50;;;28.68;nan
72975;BME280;61166;54.228;37.632;2022-08-05T12:56:56;99716.16;;;28.65;nan
72975;BME280;61166;54.228;37.632;2022-08-05T12:59:23;99712.81;;;28.68;nan
72975;BME280;61166;54.228;37.632;2022-08-05T13:02:07;99712.97;;;28.63;nan
72975;BME280;61166;54.228;37.632;2022-08-05T13:04:41;99712.31;;;28.74;nan
72975;BME280;61166;54.228;37.632;2022-08-05T13:07:12;99702.66;;;28.82;nan
72975;BME280;61166;54.228;37.632;2022-08-05T13:09:39;99699.91;;;28.73;nan
72975;BME280;61166;54.228;37.632;2022-08-05T13:12:15;99703.41;;;28.65;nan
72975;BME280;61166;54.228;37.632;2022-08-05T13:14:43;99698.47;;;28.67;nan
72975;BME280;61166;54.228;37.632;2022-08-05T13:17:16;99714.06;;;28.62;nan
72975;BME280;61166;54.228;37.632;2022-08-05T13:20:06;99707.06;;;28.69;nan
72975;BME280;61166;54.228;37.632;2022-08-05T13:22:33;99703.88;;;28.58;nan
72975;BME280;61166;54.228;37.632;2022-08-05T13:25:02;99695.75;;;28.67;nan
72975;BME280;61166;54.228;37.632;2022-08-05T13:27:32;99697.03;;;28.52;nan
72975;BME280;61166;54.228;37.632;2022-08-05T13:29:57;99695.13;;;28.62;nan
72975;BME280;61166;54.228;37.632;2022-08-05T13:32:23;99679.84;;;28.48;nan
72975;BME280;61166;54.228;37.632;2022-08-05T13:34:49;99689.38;;;28.46;nan
72975;BME280;61166;54.228;37.632;2022-08-05T13:37:16;99689.38;;;28.54;nan
72975;BME280;61166;54.228;37.632;2022-08-05T13:39:42;99682.53;;;28.48;nan